Time;durP1;ratioP1;P1;durP2;ratioP2;P2;SDS_P1;SDS_P2;PMS_P1;PMS_P2;Temp;Humidity;BMP_temperature;BMP_pressure;BME280_temperature;BME280_humidity;BME280_pressure;Samples;Min_cycle;Max_cycle;Signal;HPM_P1;HPM_P2
2021/12/29 00:01:24;;;;;;;80.47;32.53;;;;;;;6.00;100.00;99666.44;4927586;28;20625;-74
2021/12/29 00:03:50;;;;;;;76.53;32.67;;;;;;;6.03;100.00;99659.88;4911693;28;20613;-74
2021/12/29 00:06:16;;;;;;;78.30;31.98;;;;;;;6.04;100.00;99672.19;4926494;28;20073;-74
2021/12/29 00:08:42;;;;;;;76.75;33.13;;;;;;;6.07;100.00;99683.31;4919511;28;20050;-73
2021/12/29 00:11:07;;;;;;;75.95;30.63;;;;;;;6.08;100.00;99678.78;4916309;28;20046;-74
2021/12/29 00:13:33;;;;;;;73.32;30.77;;;;;;;6.13;100.00;99670.94;4927119;28;20043;-74
2021/12/29 00:15:59;;;;;;;52.30;29.17;;;;;;;6.17;100.00;99686.31;4909881;28;23990;-74
2021/12/29 00:18:33;;;;;;;61.92;30.17;;;;;;;6.18;100.00;99689.84;4927394;28;20039;-74
2021/12/29 00:21:00;;;;;;;72.72;30.67;;;;;;;6.19;100.00;99704.84;4911392;28;20089;-74
2021/12/29 00:23:26;;;;;;;79.68;28.48;;;;;;;6.22;100.00;99707.09;4928446;28;20276;-74
2021/12/29 00:25:51;;;;;;;82.82;28.60;;;;;;;6.18;100.00;99716.59;4926633;28;20510;-75
2021/12/29 00:28:17;;;;;;;103.82;31.13;;;;;;;6.12;100.00;99717.41;4894840;28;20519;-74
2021/12/29 00:30:43;;;;;;;68.30;26.08;;;;;;;6.07;100.00;99714.53;4942068;28;20023;-74
2021/12/29 00:33:09;;;;;;;76.88;25.95;;;;;;;6.02;100.00;99706.34;4913127;28;20055;-74
2021/12/29 00:35:35;;;;;;;79.53;29.15;;;;;;;5.91;100.00;99711.28;4927219;28;20073;-75
2021/12/29 00:38:03;;;;;;;80.68;28.70;;;;;;;5.85;100.00;99711.31;4927118;28;20645;-75
2021/12/29 00:40:29;;;;;;;72.20;27.20;;;;;;;5.84;100.00;99721.16;4878889;28;20172;-73
2021/12/29 00:42:55;;;;;;;80.90;27.27;;;;;;;5.77;100.00;99731.06;4925841;28;20026;-73
2021/12/29 00:45:21;;;;;;;81.03;26.75;;;;;;;5.76;100.00;99734.75;4910847;28;20055;-74
2021/12/29 00:47:48;;;;;;;69.30;28.15;;;;;;;5.77;100.00;99731.06;4926788;28;20069;-73
2021/12/29 00:50:15;;;;;;;136.15;29.55;;;;;;;5.70;100.00;99731.06;4925230;28;20580;-74
2021/12/29 00:52:42;;;;;;;62.97;25.23;;;;;;;5.71;100.00;99742.56;4914093;28;20061;-75
2021/12/29 00:55:08;;;;;;;60.55;24.23;;;;;;;5.73;100.00;99735.19;4926975;28;20034;-74
2021/12/29 00:57:33;;;;;;;66.40;26.80;;;;;;;5.77;100.00;99741.75;4909681;28;20061;-74
2021/12/29 01:00:00;;;;;;;62.35;25.98;;;;;;;5.72;100.00;99745.06;4927054;28;20031;-74
2021/12/29 01:02:25;;;;;;;58.60;25.63;;;;;;;5.71;100.00;99763.94;4923442;28;20710;-73
2021/12/29 01:04:51;;;;;;;58.55;26.63;;;;;;;5.69;100.00;99766.84;4914250;28;20158;-74
2021/12/29 01:07:17;;;;;;;63.40;26.00;;;;;;;5.68;100.00;99772.38;4926887;28;20035;-74
2021/12/29 01:09:44;;;;;;;57.50;23.90;;;;;;;5.79;100.00;99789.63;4909233;28;20115;-74
2021/12/29 01:12:10;;;;;;;57.60;24.45;;;;;;;5.79;100.00;99798.50;4927409;28;20113;-74
2021/12/29 01:14:41;;;;;;;52.50;23.25;;;;;;;5.81;100.00;99808.97;4920473;28;20035;-73
2021/12/29 01:17:06;;;;;;;54.95;24.27;;;;;;;5.82;100.00;99816.75;4917318;28;20585;-74
2021/12/29 01:19:32;;;;;;;51.47;22.85;;;;;;;5.87;100.00;99811.63;4926549;28;20035;-74
2021/12/29 01:21:59;;;;;;;59.28;24.92;;;;;;;5.90;100.00;99810.41;4912912;28;20165;-75
2021/12/29 01:24:30;;;;;;;61.05;23.67;;;;;;;5.90;100.00;99816.56;4925126;28;20033;-75
2021/12/29 01:26:57;;;;;;;58.90;23.23;;;;;;;5.84;100.00;99814.72;4922252;28;20051;-74
2021/12/29 01:29:23;;;;;;;59.95;23.02;;;;;;;5.86;100.00;99818.00;4915471;28;20066;-74
2021/12/29 01:31:48;;;;;;;59.33;24.02;;;;;;;5.85;100.00;99835.06;4925785;28;20981;-75
2021/12/29 01:34:14;;;;;;;65.95;24.98;;;;;;;5.84;100.00;99841.44;4912845;28;20074;-74
2021/12/29 01:36:41;;;;;;;66.30;24.00;;;;;;;5.90;100.00;99843.28;4927045;28;20054;-74
2021/12/29 01:39:09;;;;;;;65.88;24.83;;;;;;;5.89;100.00;99846.97;4920376;28;20058;-75
2021/12/29 01:41:35;;;;;;;66.50;24.23;;;;;;;5.91;100.00;99850.28;4915975;28;20137;-74
2021/12/29 01:44:02;;;;;;;77.40;25.92;;;;;;;5.95;100.00;99856.88;4925742;28;20042;-74
2021/12/29 01:46:27;;;;;;;82.72;26.52;;;;;;;5.97;100.00;99854.84;4912160;28;20043;-74
2021/12/29 01:48:53;;;;;;;79.22;26.27;;;;;;;5.99;100.00;99867.97;4925601;28;20045;-75
2021/12/29 01:51:20;;;;;;;83.03;27.20;;;;;;;5.96;100.00;99879.91;4921389;28;20846;-74
2021/12/29 01:53:50;;;;;;;91.28;27.60;;;;;;;6.00;100.00;99880.31;4917106;28;20764;-75
2021/12/29 01:56:16;;;;;;;86.07;27.42;;;;;;;6.01;100.00;99886.50;4925288;28;20570;-74
2021/12/29 01:58:42;;;;;;;80.90;26.75;;;;;;;6.03;100.00;99897.78;4911145;28;20055;-74
2021/12/29 02:01:07;;;;;;;95.55;28.20;;;;;;;6.03;100.00;99900.47;4926378;28;20104;-74
2021/12/29 02:03:33;;;;;;;96.60;29.48;;;;;;;6.03;100.00;99908.50;4919066;28;20082;-74
2021/12/29 02:05:58;;;;;;;106.40;30.55;;;;;;;6.07;100.00;99912.38;4915666;28;20181;-74
2021/12/29 02:08:24;;;;;;;95.70;27.73;;;;;;;6.08;100.00;99922.06;4925807;28;20049;-74
2021/12/29 02:10:51;;;;;;;138.45;32.47;;;;;;;6.06;100.00;99910.75;4910244;28;20082;-74
2021/12/29 02:13:17;;;;;;;113.18;31.85;;;;;;;6.11;100.00;99924.34;4926332;28;20440;-74
2021/12/29 02:15:43;;;;;;;142.90;32.97;;;;;;;6.15;100.00;99930.91;4917271;28;20177;-74
2021/12/29 02:18:14;;;;;;;130.82;32.58;;;;;;;6.18;100.00;99925.16;4913611;28;20057;-72
2021/12/29 02:20:41;;;;;;;128.50;32.17;;;;;;;6.21;100.00;99943.44;4921848;28;20058;-73
2021/12/29 02:23:17;;;;;;;147.80;32.53;;;;;;;6.28;100.00;99938.09;4909223;28;20058;-75
2021/12/29 02:25:54;;;;;;;127.55;31.90;;;;;;;6.31;100.00;99951.88;4923517;28;20055;-73
2021/12/29 02:28:26;;;;;;;143.45;32.05;;;;;;;6.31;100.00;99951.06;4910319;28;20078;-73
2021/12/29 02:30:52;;;;;;;117.60;29.52;;;;;;;6.26;100.00;99949.00;4922291;28;20557;-75
2021/12/29 02:33:18;;;;;;;144.27;31.75;;;;;;;6.26;100.00;99953.53;4916343;28;20039;-73
2021/12/29 02:35:44;;;;;;;109.38;28.75;;;;;;;6.27;100.00;99950.66;4912320;28;20814;-73
2021/12/29 02:38:22;;;;;;;133.32;31.35;;;;;;;6.30;100.00;99963.63;4922284;28;20101;-73
2021/12/29 02:40:56;;;;;;;115.65;29.25;;;;;;;6.27;100.00;99961.34;4906179;28;20561;-75
2021/12/29 02:43:22;;;;;;;114.72;28.63;;;;;;;6.29;100.00;99967.31;4923713;28;20041;-74
2021/12/29 02:45:51;;;;;;;109.53;29.25;;;;;;;6.32;100.00;99969.59;4916330;28;20994;-73
2021/12/29 02:48:17;;;;;;;142.73;30.58;;;;;;;6.25;100.00;99968.78;4925052;28;20042;-74
2021/12/29 02:50:44;;;;;;;119.50;29.58;;;;;;;6.29;100.00;99970.00;4923157;28;20075;-74
2021/12/29 02:53:12;;;;;;;120.78;28.60;;;;;;;6.34;100.00;99972.03;4909713;28;20050;-74
2021/12/29 02:55:38;;;;;;;122.22;29.02;;;;;;;6.36;100.00;99970.00;4924175;28;22477;-74
2021/12/29 02:58:03;;;;;;;107.28;26.85;;;;;;;6.37;100.00;99971.63;4909675;28;20113;-73
2021/12/29 03:00:29;;;;;;;109.88;28.60;;;;;;;6.42;100.00;99972.69;4922939;28;20523;-73
2021/12/29 03:02:54;;;;;;;119.82;28.83;;;;;;;6.43;100.00;99977.00;4925220;28;20031;-73
2021/12/29 03:05:23;;;;;;;112.35;27.42;;;;;;;6.44;100.00;99975.94;4910627;28;20101;-73
2021/12/29 03:07:49;;;;;;;91.70;25.42;;;;;;;6.40;100.00;99977.41;4925601;28;20035;-75
2021/12/29 03:10:14;;;;;;;100.03;26.42;;;;;;;6.40;100.00;99993.44;4909611;28;20110;-73
2021/12/29 03:12:40;;;;;;;88.25;25.55;;;;;;;6.45;100.00;99984.78;4924743;28;20034;-75
2021/12/29 03:15:06;;;;;;;84.50;23.58;;;;;;;6.44;100.00;99981.31;4922679;28;20035;-73
2021/12/29 03:17:31;;;;;;;87.13;23.95;;;;;;;6.56;100.00;99986.03;4909678;28;20089;-74
2021/12/29 03:19:57;;;;;;;73.65;21.88;;;;;;;6.53;100.00;99997.13;4923795;28;20455;-73
2021/12/29 03:22:22;;;;;;;84.75;23.95;;;;;;;6.45;100.00;99996.31;4908698;28;20476;-73
2021/12/29 03:24:47;;;;;;;86.90;23.00;;;;;;;6.50;100.00;100006.41;4927074;28;20077;-73
2021/12/29 03:27:14;;;;;;;75.53;23.23;;;;;;;6.46;100.00;100021.25;4934611;28;20057;-73
2021/12/29 03:29:39;;;;;;;69.93;20.85;;;;;;;6.51;100.00;100020.63;4915168;28;20222;-73
2021/12/29 03:32:08;;;;;;;74.90;20.75;;;;;;;6.43;100.00;100022.47;4927277;28;20038;-73
2021/12/29 03:34:34;;;;;;;75.55;21.98;;;;;;;6.50;100.00;100040.38;4915349;28;20057;-73
2021/12/29 03:36:59;;;;;;;73.45;22.17;;;;;;;6.49;100.00;100049.41;4926330;28;20034;-73
2021/12/29 03:39:26;;;;;;;79.07;21.02;;;;;;;6.50;100.00;100057.25;4925101;28;20074;-73
2021/12/29 03:41:52;;;;;;;85.93;22.05;;;;;;;6.51;100.00;100053.53;4919535;28;20081;-73
2021/12/29 03:44:18;;;;;;;72.28;22.00;;;;;;;6.56;100.00;100063.63;4929275;28;20027;-75
2021/12/29 03:46:43;;;;;;;90.80;23.25;;;;;;;6.52;100.00;100060.53;4908903;28;20055;-73
2021/12/29 03:49:09;;;;;;;88.07;23.98;;;;;;;6.57;100.00;100047.38;4928279;28;20043;-73
2021/12/29 03:51:34;;;;;;;90.00;22.90;;;;;;;6.62;100.00;100049.41;4920077;28;20066;-73
2021/12/29 03:54:04;;;;;;;85.43;23.73;;;;;;;6.63;100.00;100053.72;4903033;28;20054;-74
2021/12/29 03:56:30;;;;;;;78.30;24.08;;;;;;;6.66;100.00;100046.13;4926922;28;20051;-74
2021/12/29 03:58:55;;;;;;;104.88;26.27;;;;;;;6.72;100.00;100049.00;4913616;28;20058;-74
2021/12/29 04:01:25;;;;;;;86.25;23.90;;;;;;;6.69;100.00;100053.72;4928212;28;20027;-74
2021/12/29 04:03:51;;;;;;;90.63;24.00;;;;;;;6.72;100.00;100063.22;4921931;28;20034;-74
2021/12/29 04:06:18;;;;;;;89.30;24.80;;;;;;;6.71;100.00;100069.59;4916817;28;20050;-73
2021/12/29 04:08:44;;;;;;;90.47;26.23;;;;;;;6.74;100.00;100073.69;4928072;28;20045;-74
2021/12/29 04:11:09;;;;;;;99.72;26.35;;;;;;;6.72;100.00;100075.78;4911831;28;20078;-73
2021/12/29 04:13:36;;;;;;;94.78;26.13;;;;;;;6.69;100.00;100077.00;4927550;28;20580;-73
2021/12/29 04:16:02;;;;;;;99.15;26.30;;;;;;;6.68;100.00;100086.88;4921664;28;20039;-75
2021/12/29 04:18:27;;;;;;;116.78;27.67;;;;;;;6.67;100.00;100089.78;4918754;28;20054;-74
2021/12/29 04:21:00;;;;;;;97.88;25.77;;;;;;;6.68;100.00;100094.09;4927481;28;20031;-74
2021/12/29 04:23:31;;;;;;;96.10;26.83;;;;;;;6.63;100.00;100099.22;4911060;28;20961;-74
2021/12/29 04:26:00;;;;;;;101.20;26.73;;;;;;;6.62;100.00;100101.09;4927677;28;20130;-74
2021/12/29 04:28:26;;;;;;;105.60;29.33;;;;;;;6.63;100.00;100105.44;4924422;28;20046;-74
2021/12/29 04:30:58;;;;;;;102.68;29.52;;;;;;;6.67;100.00;100111.19;4932767;28;20047;-74
2021/12/29 04:33:24;;;;;;;102.07;29.38;;;;;;;6.63;100.00;100115.28;4927930;28;20394;-74
2021/12/29 04:35:50;;;;;;;98.65;30.35;;;;;;;6.60;100.00;100123.72;4912187;28;20051;-74
2021/12/29 04:38:15;;;;;;;109.07;30.70;;;;;;;6.61;100.00;100122.72;4927569;28;20106;-74
2021/12/29 04:40:42;;;;;;;120.88;33.90;;;;;;;6.59;100.00;100124.75;4910319;28;20051;-74
2021/12/29 04:43:07;;;;;;;113.53;33.50;;;;;;;6.64;100.00;100127.66;4925535;28;20030;-74
2021/12/29 04:45:33;;;;;;;109.57;32.58;;;;;;;6.69;100.00;100141.25;4927398;28;20498;-74
2021/12/29 04:47:59;;;;;;;106.75;33.60;;;;;;;6.74;100.00;100138.78;4910571;28;20563;-74
2021/12/29 04:50:27;;;;;;;100.05;31.25;;;;;;;6.72;100.00;100137.34;4925103;28;20042;-74
2021/12/29 04:52:56;;;;;;;117.45;33.65;;;;;;;6.68;100.00;100137.75;4909757;28;20145;-74
2021/12/29 04:55:21;;;;;;;97.03;33.78;;;;;;;6.71;100.00;100139.19;4924807;28;20054;-74
2021/12/29 04:57:47;;;;;;;93.95;32.53;;;;;;;6.73;100.00;100150.50;4925837;28;20047;-74
2021/12/29 05:00:15;;;;;;;108.88;34.92;;;;;;;6.63;100.00;100150.06;4893493;28;20051;-74
2021/12/29 05:02:40;;;;;;;106.88;36.15;;;;;;;6.70;100.00;100153.59;4908752;28;20646;-73
2021/12/29 05:05:19;;;;;;;93.82;33.13;;;;;;;6.67;100.00;100156.69;4910694;28;20061;-74
2021/12/29 05:10:28;;;;;;;99.57;35.63;;;;;;;6.77;100.00;100166.97;4919440;28;20051;-73
2021/12/29 05:12:54;;;;;;;105.60;37.17;;;;;;;6.80;100.00;100175.44;4917845;28;20123;-73
2021/12/29 05:15:19;;;;;;;94.22;36.50;;;;;;;6.82;100.00;100170.69;4924937;28;20038;-74
2021/12/29 05:17:45;;;;;;;107.00;39.17;;;;;;;6.81;100.00;100182.44;4907568;28;20066;-74
2021/12/29 05:20:10;;;;;;;114.47;40.28;;;;;;;6.86;100.00;100185.31;4926737;28;20031;-74
2021/12/29 05:22:36;;;;;;;107.32;39.33;;;;;;;6.84;100.00;100192.72;4922405;28;20074;-74
2021/12/29 05:25:02;;;;;;;118.70;39.88;;;;;;;6.81;100.00;100189.63;4918652;28;20055;-73
2021/12/29 05:27:27;;;;;;;112.47;38.90;;;;;;;6.87;100.00;100195.00;4925216;28;20031;-73
2021/12/29 05:29:53;;;;;;;109.40;38.30;;;;;;;6.87;100.00;100197.66;4911456;28;20071;-73
2021/12/29 05:32:18;;;;;;;98.82;39.55;;;;;;;6.84;100.00;100195.41;4926032;28;20042;-73
2021/12/29 05:34:43;;;;;;;106.35;38.90;;;;;;;6.85;100.00;100196.25;4902538;28;21029;-73
2021/12/29 05:37:09;;;;;;;113.40;38.63;;;;;;;6.87;100.00;100205.72;4916833;28;20055;-73
2021/12/29 05:39:34;;;;;;;105.65;37.03;;;;;;;6.85;100.00;100221.16;4927684;28;20034;-73
2021/12/29 05:42:00;;;;;;;105.38;36.72;;;;;;;6.84;100.00;100224.03;4910268;28;20050;-73
2021/12/29 05:44:25;;;;;;;96.30;35.40;;;;;;;6.86;100.00;100222.81;4926486;28;21022;-74
2021/12/29 05:46:51;;;;;;;103.32;37.00;;;;;;;6.90;100.00;100226.72;4905746;28;20213;-73
2021/12/29 05:49:16;;;;;;;117.15;36.85;;;;;;;6.93;100.00;100231.66;4917842;28;20078;-74
2021/12/29 05:51:41;;;;;;;108.32;37.08;;;;;;;6.90;100.00;100224.03;4925186;28;20030;-74
2021/12/29 05:54:07;;;;;;;99.03;35.53;;;;;;;6.93;100.00;100231.66;4910413;28;20117;-74
2021/12/29 05:56:32;;;;;;;113.53;36.60;;;;;;;6.96;100.00;100243.00;4925604;28;20106;-74
2021/12/29 05:59:01;;;;;;;110.13;38.42;;;;;;;6.88;100.00;100238.66;4917979;28;20097;-73
2021/12/29 06:01:28;;;;;;;111.68;39.28;;;;;;;6.93;100.00;100245.06;4913758;28;20110;-73
2021/12/29 06:03:54;;;;;;;103.50;36.83;;;;;;;6.88;100.00;100242.19;4909137;28;20043;-75
2021/12/29 06:06:20;;;;;;;127.28;39.80;;;;;;;6.91;100.00;100246.28;4912153;28;20122;-73
2021/12/29 06:08:45;;;;;;;105.00;37.60;;;;;;;6.89;100.00;100253.72;4923838;28;20062;-74
2021/12/29 06:11:11;;;;;;;107.03;38.22;;;;;;;6.88;100.00;100257.41;4912016;28;20071;-74
2021/12/29 06:13:36;;;;;;;101.75;37.63;;;;;;;6.82;100.00;100258.22;4922816;28;20031;-74
2021/12/29 06:16:01;;;;;;;111.53;38.67;;;;;;;6.80;100.00;100261.09;4925610;28;20030;-74
2021/12/29 06:18:27;;;;;;;106.15;38.45;;;;;;;6.79;100.00;100262.13;4909433;28;20054;-73
2021/12/29 06:20:52;;;;;;;110.57;39.67;;;;;;;6.85;100.00;100258.66;4924254;28;20042;-74
2021/12/29 06:23:18;;;;;;;119.22;39.63;;;;;;;6.88;100.00;100263.59;4909778;28;20561;-73
2021/12/29 06:25:43;;;;;;;100.97;37.53;;;;;;;6.89;100.00;100270.59;4924587;28;20082;-73
2021/12/29 06:28:09;;;;;;;116.45;38.95;;;;;;;6.90;100.00;100277.59;4925943;28;20478;-73
2021/12/29 06:30:34;;;;;;;97.53;37.13;;;;;;;6.90;100.00;100280.28;4911454;28;20051;-73
2021/12/29 06:33:00;;;;;;;98.07;38.33;;;;;;;6.94;100.00;100280.69;4926483;28;20043;-73
2021/12/29 06:35:25;;;;;;;92.10;38.85;;;;;;;6.93;100.00;100284.41;4908728;28;20664;-73
2021/12/29 06:37:51;;;;;;;97.70;39.35;;;;;;;6.88;100.00;100292.19;4924736;28;20038;-73
2021/12/29 06:40:17;;;;;;;110.07;40.17;;;;;;;6.93;100.00;100309.31;4923897;28;20046;-73
2021/12/29 06:42:43;;;;;;;100.40;39.47;;;;;;;6.90;100.00;100331.13;4890607;28;20071;-73
2021/12/29 06:45:09;;;;;;;102.85;38.60;;;;;;;6.89;100.00;100324.16;4924478;28;20102;-73
2021/12/29 06:47:34;;;;;;;87.60;38.17;;;;;;;6.93;100.00;100320.03;4908300;28;20133;-73
2021/12/29 06:50:00;;;;;;;103.03;39.50;;;;;;;6.86;100.00;100319.19;4924883;28;20031;-73
2021/12/29 06:52:25;;;;;;;99.97;38.90;;;;;;;6.88;100.00;100327.84;4925317;28;20041;-73
2021/12/29 06:54:51;;;;;;;103.93;38.50;;;;;;;6.86;100.00;100329.91;4907840;28;20046;-72
2021/12/29 06:57:16;;;;;;;105.07;41.00;;;;;;;6.90;100.00;100328.47;4925076;28;20157;-73
2021/12/29 06:59:45;;;;;;;96.65;38.85;;;;;;;6.89;100.00;100328.69;4879324;28;22533;-72
2021/12/29 07:02:11;;;;;;;96.60;37.75;;;;;;;6.96;100.00;100331.38;4923698;28;20059;-73
2021/12/29 07:04:37;;;;;;;109.18;39.25;;;;;;;6.93;100.00;100330.75;4924739;28;20719;-73
2021/12/29 07:07:03;;;;;;;106.85;39.80;;;;;;;6.93;100.00;100341.44;4911081;28;20516;-73
2021/12/29 07:09:29;;;;;;;107.15;39.88;;;;;;;6.93;100.00;100346.81;4925110;28;20495;-73
2021/12/29 07:11:54;;;;;;;100.35;37.45;;;;;;;6.94;100.00;100353.81;4907463;28;20051;-73
2021/12/29 07:14:21;;;;;;;107.15;38.83;;;;;;;6.96;100.00;100348.25;4923389;28;20031;-73
2021/12/29 07:16:48;;;;;;;98.43;37.67;;;;;;;6.99;100.00;100355.09;4903209;28;20727;-73
2021/12/29 07:19:14;;;;;;;107.05;39.03;;;;;;;6.98;100.00;100358.75;4912274;28;20062;-73
2021/12/29 07:21:39;;;;;;;95.13;35.03;;;;;;;6.93;100.00;100362.88;4923395;28;20404;-73
2021/12/29 07:24:06;;;;;;;104.40;36.35;;;;;;;6.91;100.00;100359.59;4906466;28;20055;-73
2021/12/29 07:26:32;;;;;;;110.68;36.42;;;;;;;6.89;100.00;100368.84;4904074;28;20534;-73
2021/12/29 07:28:58;;;;;;;114.28;38.97;;;;;;;6.91;100.00;100382.84;4905928;28;20493;-72
2021/12/29 07:31:23;;;;;;;102.70;35.15;;;;;;;6.93;100.00;100386.97;4914771;28;20138;-73
2021/12/29 07:33:49;;;;;;;103.70;35.30;;;;;;;6.91;100.00;100386.38;4924934;28;20038;-73
2021/12/29 07:36:14;;;;;;;90.93;35.35;;;;;;;6.91;100.00;100386.38;4904683;28;20055;-75
2021/12/29 07:38:40;;;;;;;113.05;37.70;;;;;;;7.00;100.00;100392.34;4921601;28;20035;-73
2021/12/29 07:41:06;;;;;;;102.65;34.97;;;;;;;6.97;100.00;100394.59;4920195;28;20038;-73
2021/12/29 07:43:32;;;;;;;101.63;34.83;;;;;;;6.99;100.00;100400.59;4907958;28;20050;-73
2021/12/29 07:45:57;;;;;;;107.05;35.45;;;;;;;6.97;100.00;100390.06;4922122;28;20139;-75
2021/12/29 07:48:28;;;;;;;105.38;36.13;;;;;;;6.96;100.00;100384.94;4904949;28;20055;-74
2021/12/29 07:50:54;;;;;;;131.00;38.40;;;;;;;6.94;100.00;100383.25;4923879;28;20034;-75
2021/12/29 07:53:21;;;;;;;124.97;37.72;;;;;;;6.94;100.00;100388.63;4915374;28;20125;-74
2021/12/29 07:55:46;;;;;;;114.05;38.50;;;;;;;7.03;100.00;100396.50;4912553;28;20178;-74
2021/12/29 07:58:12;;;;;;;99.65;35.50;;;;;;;7.02;100.00;100406.38;4924494;28;20039;-75
2021/12/29 08:00:37;;;;;;;126.22;39.92;;;;;;;7.03;100.00;100404.53;4891416;28;20074;-75
2021/12/29 08:03:03;;;;;;;127.35;40.03;;;;;;;7.07;100.00;100411.13;4922682;28;20039;-75
2021/12/29 08:05:28;;;;;;;126.57;38.60;;;;;;;7.10;100.00;100411.56;4901566;28;20039;-75
2021/12/29 08:07:54;;;;;;;121.60;37.08;;;;;;;7.11;100.00;100409.69;4912456;28;20404;-74
2021/12/29 08:10:19;;;;;;;125.45;36.38;;;;;;;7.12;100.00;100404.13;4923452;28;20031;-74
2021/12/29 08:12:45;;;;;;;118.95;35.45;;;;;;;7.13;100.00;100415.69;4908927;28;20138;-74
2021/12/29 08:15:11;;;;;;;133.00;38.05;;;;;;;7.14;100.00;100411.97;4926522;28;20034;-74
2021/12/29 08:17:37;;;;;;;127.28;36.65;;;;;;;7.17;100.00;100424.97;4923287;28;20138;-74
2021/12/29 08:20:04;;;;;;;130.10;38.40;;;;;;;7.16;100.00;100426.84;4917354;28;20043;-74
2021/12/29 08:22:30;;;;;;;122.45;35.90;;;;;;;7.21;100.00;100433.44;4926744;28;20046;-74
2021/12/29 08:24:55;;;;;;;124.97;36.17;;;;;;;7.22;100.00;100425.19;4908796;28;20058;-74
2021/12/29 08:27:21;;;;;;;130.10;37.83;;;;;;;7.20;100.00;100426.44;4924083;28;20062;-74
2021/12/29 08:29:47;;;;;;;111.57;35.35;;;;;;;7.22;100.00;100435.91;4920576;28;20055;-73
2021/12/29 08:32:13;;;;;;;118.68;34.50;;;;;;;7.24;100.00;100433.03;4916568;28;20098;-72
2021/12/29 08:34:38;;;;;;;105.85;35.63;;;;;;;7.29;100.00;100438.59;4926294;28;20093;-73
2021/12/29 08:37:04;;;;;;;113.30;35.42;;;;;;;7.27;100.00;100441.50;4910643;28;20090;-73
2021/12/29 08:39:29;;;;;;;123.93;34.95;;;;;;;7.31;100.00;100448.09;4940643;28;20062;-73
2021/12/29 08:41:55;;;;;;;111.57;33.22;;;;;;;7.29;100.00;100447.47;4919271;28;20066;-73
2021/12/29 08:44:20;;;;;;;91.32;31.25;;;;;;;7.28;100.00;100445.00;4917137;28;20172;-74
2021/12/29 08:46:46;;;;;;;107.60;30.60;;;;;;;7.30;100.00;100443.78;4912335;28;20124;-73
2021/12/29 08:49:12;;;;;;;92.50;30.88;;;;;;;7.30;100.00;100449.13;4913388;28;22686;-73
2021/12/29 08:51:37;;;;;;;97.10;31.15;;;;;;;7.31;100.00;100464.19;4896891;28;20035;-73
2021/12/29 08:54:03;;;;;;;93.60;29.65;;;;;;;7.33;100.00;100463.97;4922855;28;20047;-74
2021/12/29 08:56:29;;;;;;;94.47;30.25;;;;;;;7.34;100.00;100455.75;4916388;28;20065;-74
2021/12/29 08:58:54;;;;;;;90.40;30.90;;;;;;;7.33;100.00;100459.44;4926542;28;20376;-73
2021/12/29 09:01:22;;;;;;;88.45;30.23;;;;;;;7.31;100.00;100464.19;4911336;28;20101;-73
2021/12/29 09:03:48;;;;;;;79.13;29.58;;;;;;;7.37;100.00;100466.06;4925984;28;20043;-74
2021/12/29 09:06:15;;;;;;;84.70;28.35;;;;;;;7.37;100.00;100470.56;4918620;28;20057;-72
2021/12/29 09:08:40;;;;;;;86.20;29.08;;;;;;;7.37;100.00;100466.06;4896964;28;20051;-73
2021/12/29 09:11:06;;;;;;;71.25;27.20;;;;;;;7.37;100.00;100466.06;4924524;28;20078;-73
2021/12/29 09:13:31;;;;;;;83.50;28.35;;;;;;;7.35;100.00;100470.78;4912862;28;20179;-73
2021/12/29 09:15:57;;;;;;;89.78;28.17;;;;;;;7.35;100.00;100472.63;4927668;28;20391;-73
2021/12/29 09:18:27;;;;;;;83.75;27.25;;;;;;;7.34;100.00;100471.81;4920094;28;20435;-73
2021/12/29 09:20:53;;;;;;;89.45;27.13;;;;;;;7.35;100.00;100467.28;4926382;28;20910;-73
2021/12/29 09:23:19;;;;;;;77.75;28.00;;;;;;;7.44;100.00;100465.22;4908385;28;20030;-73
2021/12/29 09:25:46;;;;;;;90.68;29.00;;;;;;;7.44;100.00;100465.22;4911120;28;20487;-73
2021/12/29 09:28:14;;;;;;;83.13;27.15;;;;;;;7.58;100.00;100472.28;4927676;28;20968;-74
2021/12/29 09:30:43;;;;;;;83.97;27.35;;;;;;;7.59;100.00;100468.59;4894854;28;20181;-73
2021/12/29 09:33:09;;;;;;;75.80;25.83;;;;;;;7.66;100.00;100461.41;4923310;28;22663;-74
2021/12/29 09:35:36;;;;;;;81.57;27.60;;;;;;;7.73;100.00;100474.81;4923361;28;20041;-73
2021/12/29 09:38:03;;;;;;;87.20;23.75;;;;;;;7.73;100.00;100480.19;4904669;28;20074;-76
2021/12/29 09:40:28;;;;;;;87.45;25.60;;;;;;;7.71;100.00;100482.22;4907251;28;20038;-73
2021/12/29 09:42:54;;;;;;;87.38;26.30;;;;;;;7.73;100.00;100485.53;4909611;28;20070;-75
2021/12/29 09:45:21;;;;;;;82.13;24.92;;;;;;;7.72;100.00;100487.41;4924424;28;20070;-74
2021/12/29 09:47:46;;;;;;;73.28;22.83;;;;;;;7.78;100.00;100486.56;4923962;28;20034;-74
2021/12/29 09:50:14;;;;;;;94.65;25.85;;;;;;;7.79;100.00;100474.84;4893825;28;20146;-74
2021/12/29 09:52:41;;;;;;;78.93;24.73;;;;;;;7.81;100.00;100478.13;4929245;28;20026;-74
2021/12/29 09:55:09;;;;;;;81.50;24.77;;;;;;;7.89;100.00;100471.72;4895372;28;20066;-74
2021/12/29 09:57:38;;;;;;;60.92;23.60;;;;;;;7.93;100.00;100466.78;4929180;28;20045;-73
2021/12/29 10:00:07;;;;;;;64.20;23.75;;;;;;;7.93;100.00;100459.56;4927315;28;20043;-74
2021/12/29 10:02:32;;;;;;;74.68;23.52;;;;;;;8.02;100.00;100452.16;4925827;28;20051;-72
2021/12/29 10:04:59;;;;;;;70.05;22.08;;;;;;;8.04;100.00;100458.97;4927629;28;20061;-73
2021/12/29 10:07:26;;;;;;;69.10;21.15;;;;;;;8.10;100.00;100462.69;4919988;28;20061;-72
2021/12/29 10:09:52;;;;;;;69.72;21.80;;;;;;;8.04;100.00;100463.53;4942208;28;20042;-73
2021/12/29 10:12:21;;;;;;;56.13;20.85;;;;;;;8.11;100.00;100458.97;4918170;28;20037;-73
2021/12/29 10:14:58;;;;;;;61.13;21.23;;;;;;;8.18;100.00;100467.00;4917296;28;20062;-73
2021/12/29 10:17:27;;;;;;;68.13;20.63;;;;;;;8.13;100.00;100471.13;4910456;28;20149;-74
2021/12/29 10:20:04;;;;;;;50.25;19.27;;;;;;;8.19;100.00;100468.69;4906965;28;20062;-73
2021/12/29 10:22:30;;;;;;;53.58;18.48;;;;;;;8.28;100.00;100462.91;4927437;28;20122;-74
2021/12/29 10:25:10;;;;;;;47.53;19.65;;;;;;;8.32;100.00;100456.09;4911325;28;20039;-73
2021/12/29 10:27:36;;;;;;;66.32;19.13;;;;;;;8.32;100.00;100458.78;4926431;28;20653;-72
2021/12/29 10:30:19;;;;;;;51.05;20.50;;;;;;;8.50;100.00;100465.41;4925423;28;20601;-72
2021/12/29 10:32:45;;;;;;;53.75;19.65;;;;;;;8.58;100.00;100462.47;4916537;28;20058;-72
2021/12/29 10:35:29;;;;;;;41.50;17.83;;;;;;;8.59;100.00;100469.50;4924556;28;20050;-72
2021/12/29 10:38:08;;;;;;;38.25;17.85;;;;;;;8.66;100.00;100464.94;4908572;28;20134;-73
2021/12/29 10:40:34;;;;;;;44.58;18.42;;;;;;;8.62;100.00;100458.34;4923047;28;20023;-73
2021/12/29 10:43:00;;;;;;;34.35;15.65;;;;;;;8.61;100.00;100467.44;4910035;28;20579;-73
2021/12/29 10:45:32;;;;;;;36.33;17.33;;;;;;;8.62;100.00;100473.63;4923650;28;21017;-73
2021/12/29 10:47:58;;;;;;;37.03;16.45;;;;;;;8.64;100.00;100463.53;4923689;28;20411;-74
2021/12/29 10:50:25;;;;;;;33.45;15.68;;;;;;;8.67;100.00;100468.44;4905168;28;20069;-74
2021/12/29 10:52:53;;;;;;;37.38;16.02;;;;;;;8.80;100.00;100466.56;4924167;28;20050;-73
2021/12/29 10:55:32;;;;;;;28.58;16.05;;;;;;;8.89;100.00;100479.78;4909185;28;20062;-73
2021/12/29 10:58:02;;;;;;;32.03;14.38;;;;;;;8.96;100.00;100472.53;4925072;28;20996;-73
2021/12/29 11:00:28;;;;;;;27.88;15.93;;;;;;;8.83;100.00;100471.50;4919545;28;20034;-74
2021/12/29 11:02:57;;;;;;;25.10;14.77;;;;;;;8.84;100.00;100458.91;4912036;28;20056;-73
2021/12/29 11:05:22;;;;;;;28.42;15.30;;;;;;;8.82;100.00;100467.19;4905239;28;20129;-73
2021/12/29 11:07:48;;;;;;;26.52;14.35;;;;;;;8.75;100.00;100469.06;4907979;28;20063;-73
2021/12/29 11:10:20;;;;;;;28.73;15.05;;;;;;;8.66;100.00;100474.84;4937826;28;20027;-73